Time;durP1;ratioP1;P1;durP2;ratioP2;P2;SDS_P1;SDS_P2;PMS_P1;PMS_P2;Temp;Humidity;BMP_temperature;BMP_pressure;BME280_temperature;BME280_humidity;BME280_pressure;Samples;Min_cycle;Max_cycle;Signal;HPM_P1;HPM_P2
2023/07/24 00:01:31;;;;;;;2.40;1.60;;;22.40;90.10;;;;;;4902338;28;20245;-72
2023/07/24 00:03:58;;;;;;;2.37;1.40;;;22.50;90.20;;;;;;4904283;28;20238;-72
2023/07/24 00:06:23;;;;;;;3.87;2.30;;;22.50;90.10;;;;;;4918828;28;20252;-71
2023/07/24 00:08:49;;;;;;;4.80;2.50;;;22.50;90.10;;;;;;4905556;28;20529;-72
2023/07/24 00:11:15;;;;;;;3.47;2.33;;;22.50;90.00;;;;;;4920639;28;20238;-70
2023/07/24 00:13:40;;;;;;;2.93;1.90;;;22.60;89.90;;;;;;4916922;28;20242;-71
2023/07/24 00:16:08;;;;;;;2.50;1.93;;;22.50;89.80;;;;;;4920117;28;20222;-71
2023/07/24 00:18:34;;;;;;;3.40;1.90;;;22.50;89.80;;;;;;4902372;28;20231;-71
2023/07/24 00:20:59;;;;;;;2.03;1.83;;;22.50;89.80;;;;;;4905123;28;20541;-72
2023/07/24 00:23:25;;;;;;;2.30;2.10;;;22.50;90.10;;;;;;4900582;28;20219;-70
2023/07/24 00:25:50;;;;;;;2.00;1.80;;;22.40;90.20;;;;;;4904484;28;20226;-71
2023/07/24 00:28:16;;;;;;;2.93;2.10;;;22.40;90.30;;;;;;4921983;28;20255;-71
2023/07/24 00:30:42;;;;;;;2.63;2.23;;;22.30;90.40;;;;;;4915706;28;20227;-71
2023/07/24 00:33:08;;;;;;;2.00;1.90;;;22.30;90.40;;;;;;4906147;28;20235;-72
2023/07/24 00:35:34;;;;;;;3.00;2.07;;;22.30;90.20;;;;;;4901805;28;20939;-71
2023/07/24 00:37:59;;;;;;;2.50;1.67;;;22.30;90.40;;;;;;4920705;28;20234;-71
2023/07/24 00:40:25;;;;;;;2.50;2.17;;;22.40;90.10;;;;;;4917389;28;20227;-72
2023/07/24 00:42:51;;;;;;;2.13;1.70;;;22.40;90.20;;;;;;4919988;28;20262;-70
2023/07/24 00:45:17;;;;;;;2.13;1.93;;;22.40;90.50;;;;;;4919553;28;20223;-70
2023/07/24 00:47:43;;;;;;;2.97;1.90;;;22.40;90.30;;;;;;4900385;28;20350;-72
2023/07/24 00:50:12;;;;;;;3.50;2.67;;;22.30;90.20;;;;;;4904638;28;20227;-71
2023/07/24 00:52:39;;;;;;;2.40;1.93;;;22.20;90.40;;;;;;4915814;28;20455;-72
2023/07/24 00:55:06;;;;;;;1.73;1.60;;;22.30;90.50;;;;;;4905555;28;21011;-71
2023/07/24 00:57:33;;;;;;;2.00;1.80;;;22.30;90.50;;;;;;4902642;28;20475;-71
2023/07/24 00:59:59;;;;;;;2.77;2.10;;;22.30;90.60;;;;;;4920965;28;20494;-72
2023/07/24 01:02:25;;;;;;;2.30;2.10;;;22.30;90.50;;;;;;4901755;28;20523;-70
2023/07/24 01:04:51;;;;;;;2.20;2.00;;;22.30;90.50;;;;;;4909038;28;20511;-72
2023/07/24 01:07:17;;;;;;;2.03;1.70;;;22.30;90.60;;;;;;4922218;28;20561;-71
2023/07/24 01:09:43;;;;;;;2.17;1.97;;;22.30;90.50;;;;;;4903830;28;20227;-71
2023/07/24 01:12:36;;;;;;;2.60;1.97;;;22.30;90.40;;;;;;4904962;28;20549;-73
2023/07/24 01:15:11;;;;;;;2.70;1.97;;;22.30;90.50;;;;;;4918268;28;20234;-72
2023/07/24 01:17:45;;;;;;;2.77;2.00;;;22.30;90.50;;;;;;4901632;28;21225;-71
2023/07/24 01:20:15;;;;;;;2.03;1.60;;;22.20;90.50;;;;;;4906765;28;20562;-71
2023/07/24 01:23:10;;;;;;;2.03;1.83;;;22.30;90.70;;;;;;4917057;28;20561;-72
2023/07/24 01:26:00;;;;;;;2.00;1.80;;;22.30;90.70;;;;;;4885592;28;20482;-72
2023/07/24 01:28:26;;;;;;;1.80;1.70;;;22.20;90.70;;;;;;4901541;28;20521;-71
2023/07/24 01:30:52;;;;;;;2.67;2.03;;;22.20;90.80;;;;;;4920293;28;20475;-71
2023/07/24 01:33:19;;;;;;;2.50;1.87;;;22.20;90.70;;;;;;4903194;28;20470;-72
2023/07/24 01:35:50;;;;;;;3.00;2.13;;;22.20;90.90;;;;;;4905591;28;20483;-71
2023/07/24 01:38:16;;;;;;;3.67;2.40;;;22.10;90.90;;;;;;4906993;28;20478;-72
2023/07/24 01:40:44;;;;;;;1.70;1.60;;;22.10;90.80;;;;;;4920943;28;20470;-71
2023/07/24 01:43:10;;;;;;;3.13;1.97;;;22.10;90.80;;;;;;4920199;28;20643;-72
2023/07/24 01:45:36;;;;;;;2.37;1.83;;;22.10;90.80;;;;;;4917395;28;21164;-73
2023/07/24 01:48:05;;;;;;;2.40;2.20;;;22.20;90.80;;;;;;4904807;28;20306;-70
2023/07/24 01:50:31;;;;;;;2.03;1.60;;;22.20;90.80;;;;;;4917927;28;20223;-71
2023/07/24 01:52:57;;;;;;;2.00;1.80;;;22.20;90.90;;;;;;4904976;28;20487;-72
2023/07/24 01:55:23;;;;;;;2.37;1.97;;;22.00;91.00;;;;;;4903203;28;20552;-72
2023/07/24 01:57:49;;;;;;;3.20;2.53;;;22.00;91.00;;;;;;4904118;28;20803;-72
2023/07/24 02:00:14;;;;;;;1.83;1.70;;;22.10;91.10;;;;;;4904652;28;20830;-72
2023/07/24 02:02:40;;;;;;;2.90;2.10;;;22.00;91.30;;;;;;4917427;28;20729;-71
2023/07/24 02:05:06;;;;;;;1.77;1.67;;;21.90;91.10;;;;;;4920451;28;20302;-71
2023/07/24 02:07:31;;;;;;;1.83;1.70;;;21.90;91.40;;;;;;4902573;28;20314;-71
2023/07/24 02:09:57;;;;;;;2.33;1.97;;;21.90;91.40;;;;;;4903672;28;20693;-72
2023/07/24 02:12:23;;;;;;;2.73;1.97;;;21.90;91.40;;;;;;4902762;28;20338;-71
2023/07/24 02:14:51;;;;;;;2.03;1.90;;;21.90;91.40;;;;;;4920233;28;20219;-72
2023/07/24 02:17:17;;;;;;;2.23;1.80;;;21.90;91.50;;;;;;4910150;28;20533;-71
2023/07/24 02:19:43;;;;;;;3.40;1.90;;;21.90;91.60;;;;;;4924336;28;20545;-71
2023/07/24 02:22:09;;;;;;;2.33;1.97;;;21.80;91.50;;;;;;4913330;28;21258;-71
2023/07/24 02:24:35;;;;;;;2.83;2.10;;;21.80;91.40;;;;;;4905051;28;20215;-71
2023/07/24 02:27:01;;;;;;;2.90;1.80;;;21.80;91.60;;;;;;4908701;28;20966;-71
2023/07/24 02:29:29;;;;;;;2.37;2.17;;;21.90;91.50;;;;;;4919917;28;20219;-71
2023/07/24 02:31:55;;;;;;;2.10;1.63;;;21.90;91.50;;;;;;4922649;28;20493;-71
2023/07/24 02:34:25;;;;;;;4.83;2.23;;;21.90;91.50;;;;;;4904857;28;20230;-70
2023/07/24 02:36:53;;;;;;;3.53;2.30;;;21.80;91.60;;;;;;4908366;28;20482;-69
2023/07/24 02:39:19;;;;;;;6.37;1.90;;;21.70;91.80;;;;;;4904384;28;20496;-71
2023/07/24 02:41:45;;;;;;;2.40;1.63;;;21.70;91.80;;;;;;4907603;28;20482;-70
2023/07/24 02:44:11;;;;;;;2.50;2.30;;;21.70;91.80;;;;;;4924393;28;20474;-70
2023/07/24 02:46:37;;;;;;;2.37;1.97;;;21.70;91.80;;;;;;4903652;28;21095;-72
2023/07/24 02:49:03;;;;;;;3.40;2.27;;;21.70;91.80;;;;;;4922633;28;20570;-70
2023/07/24 02:51:29;;;;;;;2.00;1.73;;;21.60;91.90;;;;;;4919655;28;20227;-71
2023/07/24 02:53:55;;;;;;;2.10;1.90;;;21.60;92.10;;;;;;4923100;28;20475;-72
2023/07/24 02:56:21;;;;;;;1.80;1.67;;;21.50;92.10;;;;;;4919904;28;20223;-71
2023/07/24 02:58:46;;;;;;;2.20;2.00;;;21.40;92.50;;;;;;4908968;28;20489;-72
2023/07/24 03:01:14;;;;;;;2.37;1.80;;;21.30;92.80;;;;;;4906430;28;20481;-70
2023/07/24 03:03:40;;;;;;;2.60;2.40;;;21.30;93.00;;;;;;4902537;28;20481;-69
2023/07/24 03:06:06;;;;;;;2.07;1.70;;;21.30;93.00;;;;;;4891367;28;20578;-71
2023/07/24 03:08:32;;;;;;;2.37;2.17;;;21.30;92.80;;;;;;4920056;28;20525;-72
2023/07/24 03:10:58;;;;;;;2.27;2.03;;;21.40;92.80;;;;;;4910991;28;20216;-72
2023/07/24 03:13:26;;;;;;;4.03;2.53;;;21.40;92.60;;;;;;4908696;28;20538;-70
2023/07/24 03:15:57;;;;;;;2.20;2.00;;;21.50;92.50;;;;;;4922574;28;20489;-71
2023/07/24 03:18:23;;;;;;;2.37;2.17;;;21.40;92.50;;;;;;4903025;28;20710;-71
2023/07/24 03:20:49;;;;;;;2.80;2.60;;;21.50;92.50;;;;;;4906138;28;20475;-71
2023/07/24 03:23:15;;;;;;;1.50;1.37;;;21.50;92.30;;;;;;4907506;28;20474;-71
2023/07/24 03:25:41;;;;;;;2.77;1.80;;;21.50;92.20;;;;;;4920452;28;20227;-71
2023/07/24 03:28:07;;;;;;;7.83;2.57;;;21.60;92.30;;;;;;4907431;28;20227;-70
2023/07/24 03:30:32;;;;;;;3.07;2.13;;;21.60;92.30;;;;;;4919560;28;20234;-72
2023/07/24 03:32:58;;;;;;;2.43;2.10;;;21.60;92.20;;;;;;4922214;28;20251;-71
2023/07/24 03:35:24;;;;;;;3.07;2.40;;;21.60;92.10;;;;;;4903777;28;21076;-71
2023/07/24 03:37:50;;;;;;;2.63;2.10;;;21.50;92.10;;;;;;4923028;28;20238;-71
2023/07/24 03:40:16;;;;;;;2.53;1.93;;;21.60;92.50;;;;;;4922954;28;20541;-69
2023/07/24 03:42:42;;;;;;;2.90;2.10;;;21.50;92.40;;;;;;4920107;28;20230;-71
2023/07/24 03:45:08;;;;;;;2.20;2.00;;;21.50;92.40;;;;;;4922128;28;20946;-72
2023/07/24 03:47:34;;;;;;;3.43;2.20;;;21.50;92.40;;;;;;4903872;28;20220;-70
2023/07/24 03:50:00;;;;;;;2.33;2.10;;;21.50;92.40;;;;;;4920195;28;20587;-71
2023/07/24 03:52:25;;;;;;;4.30;2.47;;;21.40;92.70;;;;;;4919025;28;20227;-71
2023/07/24 03:54:52;;;;;;;3.73;1.97;;;21.40;92.50;;;;;;4904362;28;20218;-71
2023/07/24 03:57:18;;;;;;;3.07;1.97;;;21.40;92.40;;;;;;4920786;28;20224;-73
2023/07/24 03:59:44;;;;;;;3.00;2.17;;;21.30;92.60;;;;;;4904799;28;20530;-72
2023/07/24 04:02:12;;;;;;;2.00;1.83;;;21.30;92.70;;;;;;4921966;28;20607;-71
2023/07/24 04:04:38;;;;;;;3.70;2.30;;;21.20;93.30;;;;;;4905604;28;20479;-72
2023/07/24 04:07:04;;;;;;;2.70;2.00;;;21.00;93.70;;;;;;4908740;28;20838;-71
2023/07/24 04:09:30;;;;;;;3.97;2.10;;;21.00;93.60;;;;;;4905353;28;20246;-72
2023/07/24 04:11:55;;;;;;;3.10;2.07;;;21.10;93.40;;;;;;4908803;28;21020;-71
2023/07/24 04:14:21;;;;;;;2.10;1.90;;;21.20;93.50;;;;;;4906271;28;20282;-72
2023/07/24 04:16:47;;;;;;;2.30;1.77;;;21.10;93.20;;;;;;4922317;28;20638;-71
2023/07/24 04:19:13;;;;;;;6.10;2.60;;;21.00;93.50;;;;;;4922702;28;20239;-71
2023/07/24 04:21:38;;;;;;;2.50;1.90;;;21.10;93.40;;;;;;4903627;28;20231;-71
2023/07/24 04:24:04;;;;;;;3.57;2.47;;;21.20;93.20;;;;;;4905563;28;20230;-72
2023/07/24 04:26:30;;;;;;;3.77;2.17;;;21.20;93.60;;;;;;4904741;28;20683;-70
2023/07/24 04:28:55;;;;;;;4.53;2.47;;;21.10;93.80;;;;;;4921317;28;20253;-71
2023/07/24 04:31:21;;;;;;;4.10;2.33;;;21.10;93.60;;;;;;4902485;28;20235;-70
2023/07/24 04:33:47;;;;;;;5.10;2.43;;;21.20;93.50;;;;;;4922724;28;20238;-72
2023/07/24 04:36:12;;;;;;;2.30;2.10;;;21.20;93.30;;;;;;4907360;28;20258;-70
2023/07/24 04:38:38;;;;;;;3.07;2.10;;;21.20;93.30;;;;;;4918134;28;20356;-70
2023/07/24 04:41:04;;;;;;;3.27;2.13;;;21.20;93.40;;;;;;4889543;28;20359;-71
2023/07/24 04:43:30;;;;;;;4.70;2.20;;;21.20;93.50;;;;;;4902127;28;20230;-71
2023/07/24 04:45:55;;;;;;;2.63;1.97;;;21.20;93.30;;;;;;4923332;28;20223;-71
2023/07/24 04:48:21;;;;;;;2.93;2.43;;;21.20;93.40;;;;;;4918717;28;20486;-71
2023/07/24 04:50:52;;;;;;;4.27;2.73;;;21.10;93.60;;;;;;4922653;28;20223;-71
2023/07/24 04:53:18;;;;;;;4.57;2.10;;;21.10;93.50;;;;;;4908457;28;20223;-71
2023/07/24 04:55:45;;;;;;;2.87;2.67;;;21.20;93.50;;;;;;4904823;28;20482;-71
2023/07/24 04:58:11;;;;;;;3.03;1.90;;;21.20;93.60;;;;;;4905339;28;20437;-72
2023/07/24 05:00:37;;;;;;;3.20;2.60;;;21.20;93.60;;;;;;4918251;28;20487;-72
2023/07/24 05:03:02;;;;;;;7.13;2.23;;;21.10;93.80;;;;;;4922391;28;20232;-72
2023/07/24 05:05:28;;;;;;;3.93;3.00;;;21.10;93.90;;;;;;4918650;28;20709;-72
2023/07/24 05:07:54;;;;;;;7.30;2.23;;;21.00;94.10;;;;;;4905370;28;20254;-71
2023/07/24 05:10:19;;;;;;;2.37;2.17;;;20.90;94.70;;;;;;4903078;28;20247;-72
2023/07/24 05:12:45;;;;;;;2.53;2.20;;;21.00;94.50;;;;;;4906138;28;20359;-72
2023/07/24 05:15:11;;;;;;;2.90;2.10;;;21.10;94.30;;;;;;4920701;28;20223;-72
2023/07/24 05:17:36;;;;;;;6.63;2.40;;;21.10;94.00;;;;;;4918814;28;20219;-73
2023/07/24 05:20:02;;;;;;;3.60;2.60;;;21.20;93.80;;;;;;4920225;28;20262;-72
2023/07/24 05:22:28;;;;;;;2.50;2.20;;;21.20;93.80;;;;;;4917676;28;20228;-72
2023/07/24 05:24:53;;;;;;;3.37;2.43;;;21.20;94.20;;;;;;4919484;28;20820;-72
2023/07/24 05:27:19;;;;;;;4.43;2.30;;;21.30;94.10;;;;;;4902598;28;20764;-71
2023/07/24 05:29:44;;;;;;;7.30;2.80;;;21.20;94.20;;;;;;4889809;28;20255;-71
2023/07/24 05:32:10;;;;;;;3.77;2.40;;;21.20;94.10;;;;;;4919827;28;20349;-72
2023/07/24 05:34:36;;;;;;;2.47;2.27;;;21.20;94.10;;;;;;4901526;28;20235;-72
2023/07/24 05:37:01;;;;;;;3.43;2.50;;;21.20;94.40;;;;;;4905041;28;20326;-71
2023/07/24 05:39:29;;;;;;;2.80;2.40;;;21.20;94.40;;;;;;4903294;28;20232;-70
2023/07/24 05:41:54;;;;;;;3.13;2.33;;;21.10;94.60;;;;;;4920656;28;20282;-71
2023/07/24 05:44:20;;;;;;;2.30;2.10;;;21.10;94.50;;;;;;4917443;28;21258;-71
2023/07/24 05:46:46;;;;;;;2.50;2.30;;;21.10;94.70;;;;;;4921785;28;20224;-71
2023/07/24 05:49:11;;;;;;;3.00;2.00;;;21.20;95.20;;;;;;4906217;28;20382;-71
2023/07/24 05:51:37;;;;;;;2.87;2.30;;;21.10;95.40;;;;;;4902895;28;20234;-70
2023/07/24 05:54:02;;;;;;;2.93;2.17;;;21.20;95.50;;;;;;4904327;28;20219;-70
2023/07/24 05:56:28;;;;;;;3.23;2.27;;;21.20;95.40;;;;;;4904092;28;20223;-71
2023/07/24 05:58:54;;;;;;;3.53;2.70;;;21.20;95.50;;;;;;4905950;28;20307;-71
2023/07/24 06:01:19;;;;;;;3.97;2.20;;;21.20;95.50;;;;;;4904284;28;20216;-71
2023/07/24 06:03:45;;;;;;;2.37;2.17;;;21.30;95.00;;;;;;4906753;28;21017;-72
2023/07/24 06:06:11;;;;;;;3.50;2.60;;;21.30;95.50;;;;;;4904454;28;21026;-72
2023/07/24 06:08:36;;;;;;;2.87;2.00;;;21.30;95.30;;;;;;4917896;28;20793;-70
2023/07/24 06:11:02;;;;;;;5.80;2.30;;;21.30;94.90;;;;;;4905564;28;20235;-71
2023/07/24 06:13:27;;;;;;;6.63;2.87;;;21.30;95.00;;;;;;4915996;28;20294;-72
2023/07/24 06:15:53;;;;;;;3.57;2.30;;;21.30;95.00;;;;;;4904776;28;20228;-71
2023/07/24 06:18:19;;;;;;;2.40;2.10;;;21.30;95.10;;;;;;4902863;28;20228;-72
2023/07/24 06:20:45;;;;;;;6.27;2.40;;;21.30;94.90;;;;;;4905015;28;20754;-71
2023/07/24 06:23:10;;;;;;;3.70;2.87;;;21.30;95.20;;;;;;4903138;28;20335;-71
2023/07/24 06:25:36;;;;;;;3.27;2.47;;;21.30;95.10;;;;;;4916304;28;20777;-70
2023/07/24 06:28:01;;;;;;;2.20;1.87;;;21.30;95.00;;;;;;4918818;28;20230;-72
2023/07/24 06:30:27;;;;;;;2.50;2.30;;;21.30;94.90;;;;;;4915631;28;20283;-70
2023/07/24 06:32:53;;;;;;;4.20;2.47;;;21.40;95.20;;;;;;4918885;28;20231;-71
2023/07/24 06:35:18;;;;;;;4.17;3.77;;;21.30;95.20;;;;;;4904892;28;20780;-72
2023/07/24 06:37:45;;;;;;;2.23;2.03;;;21.30;95.30;;;;;;4918855;28;20227;-70
2023/07/24 06:40:11;;;;;;;3.13;2.47;;;21.40;95.50;;;;;;4917741;28;20636;-71
2023/07/24 06:42:36;;;;;;;3.30;2.50;;;21.40;95.60;;;;;;4914022;28;20537;-72
2023/07/24 06:45:02;;;;;;;5.03;2.80;;;21.40;96.50;;;;;;4906716;28;20236;-73
2023/07/24 06:47:28;;;;;;;3.00;2.33;;;21.40;96.40;;;;;;4915117;28;20231;-72
2023/07/24 06:49:54;;;;;;;2.73;2.50;;;21.50;96.10;;;;;;4919418;28;20471;-71
2023/07/24 06:52:19;;;;;;;4.40;2.43;;;21.50;96.30;;;;;;4916394;28;20234;-72
2023/07/24 06:54:45;;;;;;;2.23;2.03;;;21.50;96.40;;;;;;4919802;28;20371;-71
2023/07/24 06:57:11;;;;;;;4.63;2.90;;;21.60;96.30;;;;;;4919194;28;20232;-71
2023/07/24 06:59:36;;;;;;;2.90;2.60;;;21.60;97.20;;;;;;4901712;28;20703;-70
2023/07/24 07:02:02;;;;;;;2.80;2.43;;;21.70;96.90;;;;;;4920078;28;20301;-72
2023/07/24 07:04:28;;;;;;;2.30;2.10;;;21.70;96.90;;;;;;4902769;28;20338;-72
2023/07/24 07:06:53;;;;;;;3.03;2.57;;;21.70;96.80;;;;;;4906381;28;20325;-72
2023/07/24 07:09:19;;;;;;;2.30;2.10;;;21.80;97.20;;;;;;4904846;28;20227;-71
2023/07/24 07:11:45;;;;;;;2.33;2.13;;;21.80;97.30;;;;;;4906347;28;20231;-71
2023/07/24 07:14:10;;;;;;;2.47;2.20;;;21.80;97.70;;;;;;4905605;28;20698;-71
2023/07/24 07:16:36;;;;;;;3.63;2.67;;;21.80;97.70;;;;;;4887498;28;20347;-72
2023/07/24 07:19:02;;;;;;;3.90;3.00;;;21.80;97.60;;;;;;4921644;28;20309;-71
2023/07/24 07:21:27;;;;;;;3.87;2.53;;;21.80;97.50;;;;;;4918015;28;20941;-71
2023/07/24 07:23:54;;;;;;;3.30;2.70;;;21.80;97.40;;;;;;4908273;28;20342;-72
2023/07/24 07:26:20;;;;;;;2.80;2.30;;;21.80;98.00;;;;;;4903689;28;20232;-71
2023/07/24 07:28:46;;;;;;;2.57;2.33;;;21.80;97.60;;;;;;4907897;28;20473;-72
2023/07/24 07:31:11;;;;;;;3.47;2.90;;;21.90;97.70;;;;;;4920813;28;20238;-70
2023/07/24 07:33:37;;;;;;;3.80;2.80;;;21.90;97.70;;;;;;4890415;28;20223;-71
2023/07/24 07:36:04;;;;;;;4.03;2.37;;;21.90;97.70;;;;;;4891488;28;20286;-70
2023/07/24 07:38:30;;;;;;;2.70;2.30;;;21.90;98.00;;;;;;4902939;28;20254;-72
2023/07/24 07:40:55;;;;;;;6.90;2.67;;;22.00;97.90;;;;;;4920620;28;20477;-71
2023/07/24 07:43:21;;;;;;;4.70;2.63;;;22.00;98.10;;;;;;4904320;28;20220;-71
2023/07/24 07:45:47;;;;;;;3.73;2.87;;;22.00;97.90;;;;;;4906262;28;20247;-71
2023/07/24 07:48:13;;;;;;;6.13;3.70;;;22.00;97.80;;;;;;4906132;28;20251;-71
2023/07/24 07:50:38;;;;;;;3.13;2.50;;;22.00;97.60;;;;;;4901441;28;20269;-71
2023/07/24 07:53:04;;;;;;;2.50;2.30;;;22.00;97.70;;;;;;4921611;28;20231;-71
2023/07/24 07:55:30;;;;;;;2.47;2.27;;;22.10;97.30;;;;;;4903077;28;20230;-72
2023/07/24 07:57:55;;;;;;;3.13;2.80;;;22.10;97.30;;;;;;4906748;28;20230;-71
2023/07/24 08:00:21;;;;;;;5.23;4.17;;;22.10;97.30;;;;;;4918909;28;20238;-72
2023/07/24 08:02:47;;;;;;;3.33;2.40;;;22.20;97.50;;;;;;4921914;28;20310;-72
2023/07/24 08:05:13;;;;;;;4.20;2.50;;;22.20;97.80;;;;;;4912225;28;20490;-72
2023/07/24 08:07:39;;;;;;;4.80;2.70;;;22.30;99.10;;;;;;4902055;28;20293;-72
2023/07/24 08:10:06;;;;;;;3.93;2.70;;;22.40;99.10;;;;;;4908395;28;20228;-72
2023/07/24 08:12:32;;;;;;;5.47;2.80;;;22.40;99.10;;;;;;4918025;28;20357;-71
2023/07/24 08:14:57;;;;;;;3.73;2.70;;;22.50;99.10;;;;;;4923440;28;20845;-71
2023/07/24 08:17:23;;;;;;;3.37;2.60;;;22.60;99.10;;;;;;4903456;28;20227;-72
2023/07/24 08:19:49;;;;;;;2.50;2.30;;;22.60;98.90;;;;;;4923330;28;20266;-72
2023/07/24 08:22:14;;;;;;;2.20;2.00;;;22.70;98.90;;;;;;4911046;28;20227;-72
2023/07/24 08:24:40;;;;;;;3.83;2.60;;;22.70;98.40;;;;;;4920001;28;20598;-71
2023/07/24 08:27:06;;;;;;;2.87;2.53;;;22.70;98.40;;;;;;4912925;28;20227;-72
2023/07/24 08:29:33;;;;;;;4.10;2.93;;;22.80;98.50;;;;;;4905138;28;20314;-71
2023/07/24 08:31:58;;;;;;;3.13;2.83;;;22.90;98.50;;;;;;4923035;28;20242;-72
2023/07/24 08:34:24;;;;;;;4.30;3.87;;;22.90;98.40;;;;;;4920946;28;20629;-71
2023/07/24 08:36:50;;;;;;;4.43;2.53;;;23.00;98.60;;;;;;4923344;28;20235;-72
2023/07/24 08:39:15;;;;;;;2.93;2.63;;;23.10;98.60;;;;;;4905314;28;20227;-71
2023/07/24 08:41:41;;;;;;;3.33;3.03;;;23.20;98.50;;;;;;4909901;28;20266;-71
2023/07/24 08:44:08;;;;;;;2.87;2.57;;;23.30;98.30;;;;;;4914179;28;20258;-72
2023/07/24 08:46:45;;;;;;;3.10;2.63;;;23.40;98.20;;;;;;4912242;28;20313;-72
2023/07/24 08:49:14;;;;;;;2.70;2.50;;;23.50;98.00;;;;;;4928015;28;20471;-71
2023/07/24 08:51:41;;;;;;;3.43;2.57;;;23.60;98.00;;;;;;4916146;28;20582;-71
2023/07/24 08:54:08;;;;;;;3.43;2.60;;;23.70;97.70;;;;;;4928942;28;21237;-71
2023/07/24 08:56:35;;;;;;;3.07;2.70;;;23.70;97.40;;;;;;4902648;28;20479;-73
2023/07/24 08:59:01;;;;;;;4.10;2.33;;;23.70;97.60;;;;;;4927693;28;20982;-70
2023/07/24 09:01:27;;;;;;;3.70;2.60;;;23.70;97.20;;;;;;4912027;28;20463;-73
2023/07/24 09:03:52;;;;;;;2.67;2.47;;;23.70;97.00;;;;;;4929818;28;20824;-72
2023/07/24 09:06:18;;;;;;;3.50;2.77;;;23.70;97.00;;;;;;4914260;28;20713;-72
2023/07/24 09:08:44;;;;;;;3.00;2.43;;;23.70;96.70;;;;;;4928712;28;20402;-72
2023/07/24 09:11:10;;;;;;;3.07;2.60;;;23.70;97.40;;;;;;4913338;28;20349;-72
2023/07/24 09:13:40;;;;;;;3.07;2.77;;;23.70;97.50;;;;;;4912028;28;20716;-71
2023/07/24 09:16:06;;;;;;;2.80;2.60;;;23.60;97.30;;;;;;4910901;28;20482;-72
2023/07/24 09:18:42;;;;;;;3.90;3.20;;;23.70;97.50;;;;;;4910202;28;20475;-71
2023/07/24 09:21:14;;;;;;;2.87;2.07;;;23.70;97.30;;;;;;4912294;28;20227;-71
2023/07/24 09:23:40;;;;;;;2.60;2.40;;;23.70;97.20;;;;;;4928480;28;20610;-71
2023/07/24 09:26:07;;;;;;;3.30;2.97;;;23.70;97.30;;;;;;4912211;28;20565;-72
2023/07/24 09:28:34;;;;;;;3.10;2.40;;;23.70;97.20;;;;;;4911372;28;20546;-73
2023/07/24 09:31:00;;;;;;;4.33;2.60;;;23.80;97.20;;;;;;4911044;28;20475;-70
2023/07/24 09:33:36;;;;;;;3.57;2.80;;;23.90;97.10;;;;;;4906852;28;20481;-71
2023/07/24 09:36:07;;;;;;;3.40;3.10;;;23.90;96.90;;;;;;4913469;28;21060;-71
2023/07/24 09:38:33;;;;;;;5.27;3.23;;;24.00;96.60;;;;;;4927834;28;21024;-71
2023/07/24 09:41:01;;;;;;;4.10;3.70;;;24.00;96.40;;;;;;4927035;28;20470;-71
2023/07/24 09:43:29;;;;;;;2.70;2.43;;;24.20;96.40;;;;;;4927124;28;20238;-72
2023/07/24 09:45:56;;;;;;;4.70;3.67;;;24.30;96.60;;;;;;4912983;28;20470;-72
2023/07/24 09:48:24;;;;;;;4.77;4.00;;;24.40;95.90;;;;;;4926556;28;20475;-71
2023/07/24 09:50:56;;;;;;;4.80;4.03;;;24.70;95.40;;;;;;4915088;28;21097;-71
2023/07/24 09:53:43;;;;;;;8.00;3.30;;;24.80;95.50;;;;;;4912189;28;20474;-72
2023/07/24 09:56:09;;;;;;;4.20;3.80;;;24.90;95.70;;;;;;4912100;28;20525;-72
2023/07/24 09:58:37;;;;;;;3.97;3.57;;;25.00;95.70;;;;;;4912121;28;20518;-71
2023/07/24 10:01:08;;;;;;;5.30;4.27;;;25.00;95.50;;;;;;4909275;28;21091;-71
2023/07/24 10:03:35;;;;;;;5.30;4.03;;;25.20;94.00;;;;;;4926833;28;20455;-71
2023/07/24 10:06:01;;;;;;;3.73;3.40;;;25.20;93.50;;;;;;4926917;28;20598;-72
2023/07/24 10:08:28;;;;;;;5.23;3.73;;;25.10;92.50;;;;;;4909335;28;20475;-72
2023/07/24 10:10:53;;;;;;;4.47;4.00;;;25.20;91.90;;;;;;4911785;28;20486;-72
2023/07/24 10:13:21;;;;;;;3.63;3.23;;;25.10;92.20;;;;;;4910813;28;20534;-70
2023/07/24 10:15:48;;;;;;;4.53;3.60;;;25.20;92.00;;;;;;4909313;28;20234;-71
2023/07/24 10:18:15;;;;;;;3.60;3.27;;;25.30;91.90;;;;;;4925445;28;20471;-72
2023/07/24 10:20:42;;;;;;;4.33;3.60;;;25.30;92.20;;;;;;4927010;28;21081;-71
2023/07/24 10:23:11;;;;;;;5.97;3.93;;;25.20;92.70;;;;;;4927769;28;21255;-72
2023/07/24 10:25:43;;;;;;;4.03;3.70;;;25.20;93.30;;;;;;4907418;28;20471;-72
2023/07/24 10:28:10;;;;;;;4.63;3.70;;;25.20;93.90;;;;;;4906007;28;20467;-72
2023/07/24 10:30:41;;;;;;;4.50;3.80;;;25.20;94.20;;;;;;4899846;28;20470;-71
2023/07/24 10:33:17;;;;;;;8.90;6.30;;;25.20;94.00;;;;;;4903691;28;20482;-72
2023/07/24 10:36:05;;;;;;;3.80;3.30;;;25.20;94.20;;;;;;4899078;28;21004;-72
2023/07/24 10:38:35;;;;;;;5.77;3.63;;;25.20;94.30;;;;;;4905599;28;20492;-72
2023/07/24 10:41:05;;;;;;;4.30;3.90;;;25.20;93.70;;;;;;4908994;28;20560;-71
2023/07/24 10:43:51;;;;;;;5.97;3.70;;;25.20;93.70;;;;;;4919549;28;20462;-73
2023/07/24 10:46:18;;;;;;;5.33;4.43;;;25.30;94.00;;;;;;4907424;28;20601;-72
2023/07/24 10:48:50;;;;;;;5.10;3.40;;;25.40;93.50;;;;;;4905392;28;20948;-72
2023/07/24 10:51:16;;;;;;;4.83;3.77;;;25.30;93.00;;;;;;4910631;28;20518;-71
2023/07/24 10:53:47;;;;;;;4.23;3.53;;;25.30;93.00;;;;;;4903884;28;20562;-71
2023/07/24 10:56:14;;;;;;;4.53;3.40;;;25.40;93.30;;;;;;4921990;28;20223;-72
2023/07/24 10:58:39;;;;;;;4.33;3.50;;;25.50;93.50;;;;;;4918898;28;21178;-73
2023/07/24 11:01:06;;;;;;;4.50;3.67;;;25.50;93.40;;;;;;4921972;28;20482;-71
2023/07/24 11:03:32;;;;;;;4.83;4.30;;;25.60;93.40;;;;;;4919834;28;20310;-72
2023/07/24 11:05:58;;;;;;;3.97;3.63;;;25.60;93.50;;;;;;4906603;28;20563;-71
2023/07/24 11:08:24;;;;;;;4.37;3.97;;;25.50;93.70;;;;;;4905262;28;20469;-72
2023/07/24 11:10:50;;;;;;;2.93;2.63;;;25.60;93.90;;;;;;4905028;28;20467;-72
2023/07/24 11:13:17;;;;;;;3.50;3.20;;;25.70;93.90;;;;;;4921308;28;20521;-71
2023/07/24 11:15:44;;;;;;;4.27;3.87;;;25.80;94.00;;;;;;4917327;28;20262;-72
2023/07/24 11:18:10;;;;;;;3.63;3.30;;;25.80;94.00;;;;;;4921698;28;20526;-71
2023/07/24 11:20:55;;;;;;;4.43;3.37;;;25.80;93.90;;;;;;4900406;28;20491;-72
2023/07/24 11:23:21;;;;;;;4.70;3.90;;;25.90;94.10;;;;;;4922154;28;20498;-72
2023/07/24 11:25:47;;;;;;;4.70;3.77;;;26.00;94.10;;;;;;4905635;28;20459;-72
2023/07/24 11:28:14;;;;;;;4.60;4.10;;;26.00;93.80;;;;;;4903145;28;21026;-72
2023/07/24 11:30:40;;;;;;;4.50;4.10;;;26.10;93.70;;;;;;4901723;28;20471;-72
2023/07/24 11:33:09;;;;;;;5.83;3.73;;;26.20;93.60;;;;;;4903041;28;20490;-72
2023/07/24 11:35:36;;;;;;;4.30;3.80;;;26.30;93.50;;;;;;4916700;28;20463;-71
2023/07/24 11:38:05;;;;;;;4.87;4.37;;;26.30;93.50;;;;;;4904805;28;20490;-72
2023/07/24 11:40:41;;;;;;;4.40;3.87;;;26.40;93.40;;;;;;4899828;28;20501;-72
2023/07/24 11:43:19;;;;;;;3.33;3.00;;;26.50;93.10;;;;;;4920433;28;20479;-73
2023/07/24 11:45:48;;;;;;;3.53;3.23;;;26.70;93.00;;;;;;4904213;28;20462;-71
2023/07/24 11:48:14;;;;;;;3.83;3.50;;;26.90;92.80;;;;;;4904882;28;20497;-72
2023/07/24 11:50:52;;;;;;;3.57;2.90;;;27.00;92.70;;;;;;4900727;28;20219;-73
2023/07/24 11:53:27;;;;;;;4.37;3.97;;;27.20;92.40;;;;;;4915422;28;20545;-72
2023/07/24 11:55:54;;;;;;;4.30;3.03;;;27.20;92.20;;;;;;4910001;28;20234;-72
2023/07/24 11:58:21;;;;;;;4.53;4.07;;;27.10;92.50;;;;;;4923588;28;20495;-72
2023/07/24 12:00:48;;;;;;;4.90;4.10;;;27.00;92.50;;;;;;4910272;28;20482;-72
2023/07/24 12:03:21;;;;;;;6.53;3.50;;;27.00;92.30;;;;;;4914511;28;20355;-72
2023/07/24 12:05:47;;;;;;;4.47;4.07;;;26.90;92.00;;;;;;4914248;28;20232;-72
2023/07/24 12:08:14;;;;;;;3.53;3.23;;;26.90;92.00;;;;;;4913302;28;20212;-73
2023/07/24 12:10:40;;;;;;;3.30;3.00;;;26.90;91.60;;;;;;4912030;28;20216;-73
2023/07/24 12:13:06;;;;;;;4.23;3.83;;;27.00;91.50;;;;;;4912086;28;20470;-72
2023/07/24 12:15:36;;;;;;;4.47;3.00;;;27.00;91.40;;;;;;4915668;28;20246;-74
2023/07/24 12:18:02;;;;;;;4.30;3.90;;;27.00;91.20;;;;;;4914931;28;20474;-72
2023/07/24 12:20:28;;;;;;;3.63;3.27;;;27.00;91.30;;;;;;4926684;28;20587;-73
2023/07/24 12:22:54;;;;;;;4.17;3.63;;;26.90;91.40;;;;;;4929044;28;20298;-71
2023/07/24 12:25:20;;;;;;;3.80;3.30;;;26.90;91.30;;;;;;4912889;28;20467;-72
2023/07/24 12:27:47;;;;;;;9.83;3.30;;;26.90;91.30;;;;;;4926653;28;21624;-72
2023/07/24 12:30:12;;;;;;;3.77;3.47;;;26.80;91.30;;;;;;4914178;28;20298;-72
2023/07/24 12:32:38;;;;;;;5.23;3.80;;;26.80;91.30;;;;;;4928936;28;20510;-72
2023/07/24 12:35:05;;;;;;;4.47;4.00;;;26.80;91.50;;;;;;4927150;28;20334;-72
2023/07/24 12:37:31;;;;;;;4.03;3.63;;;26.80;91.50;;;;;;4910255;28;20342;-72
2023/07/24 12:39:57;;;;;;;9.07;4.03;;;26.70;91.50;;;;;;4928048;28;20483;-73
2023/07/24 12:42:23;;;;;;;8.67;4.67;;;26.70;91.70;;;;;;4926887;28;20495;-72
2023/07/24 12:44:49;;;;;;;7.13;3.93;;;26.70;91.70;;;;;;4912658;28;20486;-73
2023/07/24 12:47:15;;;;;;;4.97;4.10;;;26.60;91.90;;;;;;4910187;28;21102;-73